• Join FlightAware (Why Join?)
  • Login
  • US Flag 
Gobble Gobble! 
03:46AM EST


 

Airport Tracker/Info


-or-


 

Live Flight TrackerFlight Track Log ✈ N60GS ✈ 25-Sep-2013 ✈ KDHN - KIDP

Flight Track Log - Related Links

Times and Time Zones

All times are in EDT time to prevent confusion due to time zone crossing. See the N60GS flight status page for this flight to view local times or setup timezone preferences in your user account.

Time Position Orientation Groundspeed Altitude Reporting Facility
EDT Latitude Longitude Course Direction KTS MPH feet Rate Location/Type
06:48AM 31.3628 -85.5153 333° Northwest 184 212 3,500  Level Jacksonville Center
06:48AM 31.3669 -85.5178 333° Northwest 187 215 3,700 2,220 Climbing Jacksonville Center
06:49AM 31.4069 -85.5919 302° West 205 236 7,000 2,220 Climbing Jacksonville Center
06:50AM 31.4394 -85.6442 306° West 205 236 9,300 2,160 Climbing Jacksonville Center
06:51AM 31.4739 -85.6914 311° West 199 229 11,400 1,860 Climbing Jacksonville Center
06:53AM 31.5489 -85.7617 321° Northwest 209 241 14,600 1,620 Climbing Atlanta Center
06:54AM 31.5814 -85.8158 305° West 193 222 16,100 1,380 Climbing Atlanta Center
06:55AM 31.6161 -85.8703 307° West 204 235 17,400 1,380 Climbing Atlanta Center
06:56AM 31.6508 -85.9247 307° West 204 235 18,900 1,320 Climbing Atlanta Center
06:57AM 31.6856 -85.9789 307° West 204 235 20,100 1,140 Climbing Atlanta Center
06:58AM 31.7242 -86.0361 308° West 209 241 21,200 1,140 Climbing Atlanta Center
06:59AM 31.7586 -86.0953 304° West 214 246 22,400 900 Climbing Atlanta Center
07:00AM 31.7975 -86.1550 307° West 224 258 23,000 300 Climbing Atlanta Center
07:01AM 31.8422 -86.2244 307° West 247 284 23,000 360 Level Atlanta Center
07:02AM 31.8867 -86.2989 305° West 270 311 23,800 1,140 Climbing Atlanta Center
07:03AM 31.9272 -86.3611 308° West 263 303 25,300 1,260 Climbing Atlanta Center
07:04AM 31.9656 -86.4258 305° West 257 296 26,400 1,080 Climbing Atlanta Center
07:05AM 32.0125 -86.4906 311° West 257 296 27,500 1,020 Climbing Atlanta Center
07:06AM 32.0528 -86.5531 307° West 252 290 28,500 1,080 Climbing Atlanta Center
07:07AM 32.0872 -86.6128 304° West 247 284 29,700 1,080 Climbing Atlanta Center
07:08AM 32.1275 -86.6753 307° West 242 278 30,700 1,020 Climbing Atlanta Center
07:09AM 32.1658 -86.7403 305° West 236 272 31,800 960 Climbing Atlanta Center
07:10AM 32.2022 -86.7978 307° West 231 266 32,700 840 Climbing Atlanta Center
07:11AM 32.2403 -86.8603 306° West 231 266 33,600 900 Climbing Atlanta Center
07:12AM 32.2786 -86.9206 307° West 231 266 34,500 900 Climbing Atlanta Center
07:13AM 32.3169 -86.9783 308° West 226 260 35,400 720 Climbing Atlanta Center
07:14AM 32.3508 -87.0383 304° West 226 260 36,000 240 Climbing Atlanta Center
07:15AM 32.3892 -87.0986 307° West 226 260 36,000  Level Atlanta Center
07:16AM 32.4311 -87.1692 305° West 239 275 36,000  Level Atlanta Center
07:17AM 32.4772 -87.2422 307° West 257 296 36,000  Level Atlanta Center
07:18AM 32.5233 -87.3178 306° West 272 313 36,000  Level Atlanta Center
07:19AM 32.5714 -87.3933 307° West 278 320 36,000  Level Atlanta Center
07:20AM 32.6175 -87.4667 307° West 283 326 36,000  Level Atlanta Center
07:21AM 32.6633 -87.5400 307° West 283 326 36,000  Level Atlanta Center
07:22AM 32.7128 -87.6264 304° West 283 326 36,000  Level Memphis Center
07:23AM 32.7583 -87.7042 305° West 276 318 36,000  Level Memphis Center
07:24AM 32.8058 -87.7819 306° West 281 323 36,000  Level Memphis Center
07:25AM 32.8514 -87.8572 306° West 281 323 36,000  Level Memphis Center
07:26AM 32.9008 -87.9325 308° West 286 329 36,000  Level Memphis Center
07:27AM 32.9483 -88.0128 305° West 286 329 36,000  Level Memphis Center
07:28AM 32.9914 -88.0861 305° West 281 323 36,000  Level Memphis Center
07:29AM 33.0344 -88.1642 303° West 281 323 36,000  Level Memphis Center
07:30AM 33.0797 -88.2350 307° West 289 333 36,000  Level Memphis Center
07:31AM 33.1289 -88.3106 308° West 289 333 36,000  Level Memphis Center
07:32AM 33.1739 -88.3867 305° West 289 333 36,000  Level Memphis Center
07:33AM 33.2211 -88.4650 306° West 284 327 36,000  Level Memphis Center
07:34AM 33.2661 -88.5436 304° West 284 327 36,000  Level Memphis Center
07:35AM 33.3131 -88.6197 306° West 284 327 36,000  Level Memphis Center
07:36AM 33.3581 -88.6958 305° West 284 327 36,000  Level Memphis Center
07:37AM 33.4050 -88.7747 305° West 284 327 36,000  Level Memphis Center
07:38AM 33.4478 -88.8533 303° West 284 327 36,000  Level Memphis Center
07:39AM 33.4944 -88.9300 306° West 284 327 36,000  Level Memphis Center
07:40AM 33.5392 -89.0089 304° West 284 327 36,000  Level Memphis Center
07:41AM 33.5881 -89.0878 307° West 284 327 36,000  Level Memphis Center
07:42AM 33.6306 -89.1647 304° West 284 327 36,000  Level Memphis Center
07:43AM 33.6794 -89.2514 304° West 284 327 36,000  Level Memphis Center
07:44AM 33.7258 -89.3258 307° West 284 327 36,000  Level Memphis Center
07:45AM 33.7703 -89.4050 304° West 284 327 36,000  Level Memphis Center
07:46AM 33.8169 -89.4822 306° West 284 327 36,000  Level Memphis Center
07:47AM 33.8528 -89.5492 303° West 279 321 36,000  Level Memphis Center
07:48AM 33.8992 -89.6289 305° West 284 327 36,000  Level Memphis Center
07:49AM 33.9436 -89.7086 304° West 284 327 36,000  Level Memphis Center
07:50AM 33.9897 -89.7836 307° West 284 327 36,000  Level Memphis Center
07:51AM 34.0339 -89.8633 304° West 284 327 36,000  Level Memphis Center
07:52AM 34.0822 -89.9508 304° West 284 327 36,000  Level Memphis Center
07:53AM 34.1264 -90.0258 305° West 284 327 36,000  Level Memphis Center
07:54AM 34.1703 -90.1061 303° West 284 327 36,000  Level Memphis Center
07:55AM 34.2122 -90.1814 304° West 284 327 36,000  Level Memphis Center
07:56AM 34.2583 -90.2567 307° West 284 327 36,000  Level Memphis Center
07:57AM 34.3000 -90.3319 304° West 284 327 36,000  Level Memphis Center
07:58AM 34.3458 -90.4125 305° West 284 327 36,000  Level Memphis Center
07:59AM 34.3897 -90.4906 304° West 284 327 36,000  Level Memphis Center
08:00AM 34.4292 -90.5586 305° West 284 327 36,000  Level Memphis Center
08:01AM 34.4731 -90.6367 304° West 284 327 36,000  Level Memphis Center
08:02AM 34.5186 -90.7150 305° West 284 327 36,000  Level Memphis Center
08:03AM 34.5622 -90.7958 303° West 284 327 36,000  Level Memphis Center
08:04AM 34.6058 -90.8719 305° West 284 327 36,000  Level Memphis Center
08:05AM 34.6533 -90.9581 304° West 284 327 36,000  Level Memphis Center
08:06AM 34.6989 -91.0392 304° West 284 327 36,000  Level Memphis Center
08:07AM 34.7422 -91.1153 305° West 284 327 36,000  Level Memphis Center
08:08AM 34.7833 -91.1942 302° West 284 327 36,000  Level Memphis Center
08:09AM 34.8267 -91.2703 305° West 284 327 36,000  Level Memphis Center
08:10AM 34.8719 -91.3494 305° West 284 327 36,000  Level Memphis Center
08:11AM 34.9092 -91.4156 304° West 277 319 36,000  Level Memphis Center
08:12AM 34.9500 -91.4947 302° West 272 313 36,000  Level Memphis Center
08:13AM 34.9972 -91.5714 307° West 277 319 36,000  Level Memphis Center
08:14AM 35.0383 -91.6531 302° West 284 327 36,000  Level Memphis Center
08:15AM 35.0792 -91.7297 303° West 284 327 36,000  Level Memphis Center
08:16AM 35.1219 -91.8092 303° West 284 327 36,000  Level Memphis Center
08:17AM 35.1650 -91.8886 304° West 284 327 36,000  Level Memphis Center
08:18AM 35.2078 -91.9683 303° West 284 327 36,000  Level Memphis Center
08:19AM 35.2506 -92.0478 303° West 284 327 36,000  Level Memphis Center
08:20AM 35.2933 -92.1225 305° West 284 327 36,000  Level Memphis Center
08:21AM 35.3358 -92.2025 303° West 284 327 36,000  Level Memphis Center
08:22AM 35.3786 -92.2822 303° West 284 327 36,000  Level Memphis Center
08:23AM 35.4189 -92.3594 303° West 284 327 36,000  Level Memphis Center
08:24AM 35.4636 -92.4422 304° West 284 327 36,000  Level Memphis Center
08:25AM 35.5039 -92.5172 303° West 284 327 36,000  Level Memphis Center
08:26AM 35.5464 -92.5975 303° West 284 327 36,000  Level Memphis Center
08:27AM 35.5886 -92.6778 303° West 284 327 36,000  Level Memphis Center
08:28AM 35.6331 -92.7633 303° West 292 336 36,000  Level Memphis Center
08:29AM 35.6733 -92.8358 304° West 288 331 36,000  Level Memphis Center
08:30AM 35.7153 -92.9164 303° West 281 323 36,000  Level Memphis Center
08:31AM 35.7575 -92.9969 303° West 281 323 36,000  Level Memphis Center
08:32AM 35.7994 -93.0778 303° West 281 323 36,000  Level Memphis Center
08:33AM 35.8417 -93.1586 303° West 281 323 36,000  Level Memphis Center
08:34AM 35.8814 -93.2392 301° West 281 323 36,000  Level Memphis Center
08:35AM 35.9233 -93.3175 303° West 281 323 36,000  Level Memphis Center
08:36AM 35.9653 -93.3986 303° West 281 323 36,000  Level Memphis Center
08:37AM 36.0092 -93.4797 304° West 281 323 36,000  Level Memphis Center
08:38AM 36.0467 -93.5608 300° West 281 323 36,000  Level Memphis Center
08:39AM 36.0883 -93.6394 303° West 281 323 36,000  Level Memphis Center
08:40AM 36.1281 -93.7181 302° West 281 323 36,000 -840 Level Memphis Center
08:43AM 36.2256 -93.8989 304° West 294 338 33,400 -1,320 Descending Kansas City Center
08:44AM 36.2700 -93.9875 302° West 302 348 31,900 -1,500 Descending Kansas City Center
08:45AM 36.3144 -94.0722 303° West 299 344 30,400 -1,620 Descending Kansas City Center
08:46AM 36.3667 -94.1800 301° West 297 342 28,600 -1,620 Descending Kansas City Center
08:47AM 36.4122 -94.2683 303° West 301 346 27,100 -1,500 Descending Kansas City Center
08:48AM 36.4578 -94.3586 302° West 307 353 25,600 -1,500 Descending Kansas City Center
08:49AM 36.5033 -94.4478 302° West 306 352 24,100 -1,020 Descending Kansas City Center
08:50AM 36.5464 -94.5336 302° West 297 342 23,600 -1,020 Descending Kansas City Center
08:51AM 36.5886 -94.6208 301° West 294 338 22,100 -1,500 Descending Kansas City Center
08:52AM 36.6336 -94.7100 302° West 302 348 20,600 -1,620 Descending Kansas City Center
08:53AM 36.6872 -94.8172 302° West 305 351 18,800 -1,620 Descending Kansas City Center
08:54AM 36.7311 -94.9072 301° West 305 351 17,300 -1,500 Descending Kansas City Center
08:55AM 36.7756 -94.9964 302° West 304 350 15,800 -1,500 Descending Kansas City Center
08:56AM 36.8172 -95.0814 301° West 293 337 14,300 -1,500 Descending Kansas City Center
08:57AM 36.8581 -95.1619 302° West 282 325 12,800 -1,500 Descending Kansas City Center
08:58AM 36.8981 -95.2442 301° West 279 321 11,300 -1,500 Descending Kansas City Center
08:59AM 36.9367 -95.3244 301° West 276 318 9,800 -1,620 Descending Kansas City Center
09:00AM 36.9819 -95.4161 302° West 268 308 8,000 -1,620 Descending Kansas City Center
09:01AM 37.0186 -95.4911 301° West 260 299 6,500 -1,440 Descending Kansas City Center
09:02AM 37.0558 -95.5672 302° West 258 297 5,100 -1,320 Descending Kansas City Center
09:03AM 37.0928 -95.6444 301° West 258 297 3,900 -1,080 Descending Kansas City Center
09:04AM 37.1022 -95.7172 279° West 229 264 3,000 -960 Descending Kansas City Center
09:05AM 37.1022 -95.7714 270° West 189 217 2,000 -900 Descending Kansas City Center
09:06AM 37.1300 -95.7778 350° North 131 151 1,200 -780 Descending Kansas City Center